Time;durP1;ratioP1;P1;durP2;ratioP2;P2;SDS_P1;SDS_P2;PMS_P1;PMS_P2;Temp;Humidity;BMP_temperature;BMP_pressure;BME280_temperature;BME280_humidity;BME280_pressure;Samples;Min_cycle;Max_cycle;Signal;HPM_P1;HPM_P2
2021/10/21 00:00:32;;;;;;;6.18;3.65;;;11.10;94.80;;;;;;4911286;28;20032;-68
2021/10/21 00:02:58;;;;;;;6.40;3.72;;;11.00;95.60;;;;;;4914339;29;20092;-67
2021/10/21 00:05:24;;;;;;;6.03;3.85;;;11.10;95.30;;;;;;4909555;29;20378;-67
2021/10/21 00:07:49;;;;;;;5.05;3.35;;;11.10;95.90;;;;;;4911641;29;20111;-67
2021/10/21 00:10:16;;;;;;;6.85;3.90;;;11.10;96.10;;;;;;4912382;29;20386;-67
2021/10/21 00:12:42;;;;;;;5.88;3.58;;;11.10;96.00;;;;;;4911414;29;20051;-67
2021/10/21 00:15:09;;;;;;;5.55;3.15;;;11.10;96.10;;;;;;4913484;29;20067;-67
2021/10/21 00:17:36;;;;;;;4.75;3.60;;;11.20;95.80;;;;;;4911114;29;20039;-67
2021/10/21 00:20:06;;;;;;;4.47;3.25;;;11.20;96.10;;;;;;4910652;29;20039;-68
2021/10/21 00:22:32;;;;;;;5.68;3.22;;;11.30;95.90;;;;;;4911571;29;20509;-67
2021/10/21 00:24:57;;;;;;;4.82;3.40;;;11.30;96.00;;;;;;4912357;29;20067;-67
2021/10/21 00:27:23;;;;;;;3.80;3.25;;;11.20;96.30;;;;;;4911573;29;20036;-67
2021/10/21 00:29:49;;;;;;;4.03;3.25;;;11.10;96.30;;;;;;4912823;29;20128;-67
2021/10/21 00:32:15;;;;;;;5.00;3.47;;;11.20;96.30;;;;;;4911738;29;20400;-68
2021/10/21 00:34:40;;;;;;;5.50;3.50;;;11.10;96.20;;;;;;4912501;29;20039;-67
2021/10/21 00:37:06;;;;;;;6.95;3.75;;;11.10;96.20;;;;;;4929059;29;20042;-67
2021/10/21 00:39:32;;;;;;;4.25;3.10;;;11.10;96.50;;;;;;4912807;29;20028;-67
2021/10/21 00:41:57;;;;;;;4.35;3.33;;;11.10;96.50;;;;;;4912141;29;20102;-67
2021/10/21 00:44:23;;;;;;;5.63;3.40;;;11.10;96.30;;;;;;4912465;29;20028;-67
2021/10/21 00:46:49;;;;;;;5.00;3.03;;;11.20;96.20;;;;;;4911210;29;20086;-67
2021/10/21 00:49:15;;;;;;;5.05;3.15;;;11.10;96.80;;;;;;4926129;29;20581;-68
2021/10/21 00:51:41;;;;;;;4.82;3.50;;;11.10;96.40;;;;;;4912952;29;20043;-67
2021/10/21 00:54:08;;;;;;;5.28;3.50;;;11.10;96.50;;;;;;4910548;29;20032;-68
2021/10/21 00:56:35;;;;;;;5.22;3.38;;;11.10;96.70;;;;;;4912008;29;20537;-67
2021/10/21 00:59:01;;;;;;;4.65;3.25;;;11.10;96.70;;;;;;4911367;29;20039;-68
2021/10/21 01:01:29;;;;;;;5.93;3.25;;;11.20;96.40;;;;;;4910328;29;20036;-68
2021/10/21 01:03:55;;;;;;;4.70;2.97;;;11.20;96.40;;;;;;4912537;29;20032;-68
2021/10/21 01:06:21;;;;;;;4.57;2.53;;;11.20;96.20;;;;;;4912862;29;20032;-68
2021/10/21 01:08:47;;;;;;;5.63;2.65;;;11.30;96.10;;;;;;4912335;29;20605;-67
2021/10/21 01:11:14;;;;;;;3.55;2.67;;;11.20;96.50;;;;;;4909447;29;20086;-68
2021/10/21 01:13:40;;;;;;;4.95;2.63;;;11.20;96.20;;;;;;4910137;29;20045;-68
2021/10/21 01:16:10;;;;;;;4.20;2.45;;;11.30;96.20;;;;;;4912193;29;20036;-68
2021/10/21 01:18:36;;;;;;;7.82;3.20;;;11.30;96.20;;;;;;4911008;29;20070;-69
2021/10/21 01:21:03;;;;;;;3.55;2.75;;;11.40;95.90;;;;;;4912391;29;20416;-68
2021/10/21 01:23:28;;;;;;;3.92;3.05;;;11.40;96.20;;;;;;4910278;29;20466;-68
2021/10/21 01:25:55;;;;;;;4.25;3.15;;;11.40;95.90;;;;;;4915085;29;20063;-68
2021/10/21 01:28:20;;;;;;;3.88;3.22;;;11.40;96.30;;;;;;4913343;29;20552;-68
2021/10/21 01:30:46;;;;;;;5.57;2.72;;;11.40;96.10;;;;;;4913645;29;20050;-68
2021/10/21 01:33:13;;;;;;;3.17;2.85;;;11.40;96.10;;;;;;4915223;29;20046;-68
2021/10/21 01:35:39;;;;;;;4.70;2.75;;;11.40;96.00;;;;;;4914685;29;20028;-68
2021/10/21 01:38:04;;;;;;;4.47;2.60;;;11.40;96.00;;;;;;4911521;29;20083;-68
2021/10/21 01:40:30;;;;;;;3.67;3.00;;;11.50;95.80;;;;;;4915224;29;20434;-68
2021/10/21 01:42:56;;;;;;;3.10;2.38;;;11.50;95.60;;;;;;4914658;29;20032;-68
2021/10/21 01:45:24;;;;;;;3.80;2.75;;;11.50;95.40;;;;;;4915963;29;20167;-68
2021/10/21 01:47:50;;;;;;;3.63;2.60;;;11.50;95.30;;;;;;4914959;29;20103;-68
2021/10/21 01:50:17;;;;;;;4.28;2.67;;;11.50;95.20;;;;;;4915593;29;20135;-68
2021/10/21 01:52:43;;;;;;;4.18;2.40;;;11.60;95.20;;;;;;4913525;29;20405;-68
2021/10/21 01:55:11;;;;;;;4.60;2.67;;;11.60;95.00;;;;;;4929996;29;20050;-68
2021/10/21 01:57:37;;;;;;;4.00;2.50;;;11.60;95.40;;;;;;4912918;29;20549;-68
2021/10/21 02:00:09;;;;;;;3.47;2.70;;;11.60;95.50;;;;;;4914722;29;20401;-69
2021/10/21 02:02:34;;;;;;;5.18;2.97;;;11.50;95.50;;;;;;4914772;29;20037;-68
2021/10/21 02:05:00;;;;;;;3.83;2.78;;;11.60;95.40;;;;;;4914166;29;20518;-68
2021/10/21 02:07:26;;;;;;;3.30;3.00;;;11.60;95.30;;;;;;4915416;29;20494;-68
2021/10/21 02:09:52;;;;;;;3.83;3.05;;;11.60;95.20;;;;;;4913754;29;20036;-68
2021/10/21 02:12:18;;;;;;;4.43;2.58;;;11.60;95.30;;;;;;4912486;29;20690;-68
2021/10/21 02:14:44;;;;;;;3.08;2.47;;;11.60;95.20;;;;;;4915058;29;20040;-68
2021/10/21 02:17:10;;;;;;;5.13;2.85;;;11.60;95.00;;;;;;4927556;29;20032;-68
2021/10/21 02:19:36;;;;;;;3.90;2.88;;;11.50;94.90;;;;;;4914683;29;20486;-68
2021/10/21 02:22:03;;;;;;;3.75;2.72;;;11.60;95.00;;;;;;4914581;29;20489;-68
2021/10/21 02:24:28;;;;;;;3.08;2.78;;;11.50;95.60;;;;;;4915391;29;20478;-68
2021/10/21 02:26:54;;;;;;;3.55;2.95;;;11.50;95.60;;;;;;4913232;29;20143;-68
2021/10/21 02:29:20;;;;;;;4.32;3.10;;;11.50;95.50;;;;;;4915045;29;20039;-68
2021/10/21 02:31:45;;;;;;;4.57;3.10;;;11.40;95.60;;;;;;4914280;28;20036;-68
2021/10/21 02:34:11;;;;;;;3.70;2.88;;;11.30;96.10;;;;;;4914501;29;20044;-68
2021/10/21 02:36:37;;;;;;;3.60;3.03;;;11.30;96.00;;;;;;4911331;29;20047;-68
2021/10/21 02:39:04;;;;;;;4.80;3.38;;;11.40;95.90;;;;;;4913959;29;20308;-68
2021/10/21 02:41:29;;;;;;;3.30;2.78;;;11.40;96.20;;;;;;4913354;29;20024;-68
2021/10/21 02:43:55;;;;;;;4.03;2.90;;;11.40;96.00;;;;;;4923408;29;20039;-69
2021/10/21 02:46:20;;;;;;;3.70;3.08;;;11.40;96.10;;;;;;4914706;29;20064;-68
2021/10/21 02:48:46;;;;;;;5.88;3.00;;;11.40;95.90;;;;;;4914837;29;20036;-69
2021/10/21 02:51:12;;;;;;;5.38;3.05;;;11.40;95.90;;;;;;4910267;29;20068;-69
2021/10/21 02:53:37;;;;;;;4.35;3.08;;;11.40;96.00;;;;;;4912983;29;20076;-69
2021/10/21 02:56:03;;;;;;;3.22;2.78;;;11.50;95.80;;;;;;4917197;29;20060;-69
2021/10/21 02:58:29;;;;;;;2.92;2.50;;;11.50;95.80;;;;;;4914144;29;20107;-69
2021/10/21 03:00:55;;;;;;;3.47;2.42;;;11.50;96.00;;;;;;4912437;29;20037;-69
2021/10/21 03:03:20;;;;;;;3.70;3.00;;;11.50;96.00;;;;;;4914976;29;20039;-69
2021/10/21 03:05:46;;;;;;;3.22;2.60;;;11.50;95.90;;;;;;4913988;29;20024;-69
2021/10/21 03:08:12;;;;;;;5.10;2.90;;;11.50;96.10;;;;;;4913675;29;20040;-69
2021/10/21 03:10:37;;;;;;;3.67;3.10;;;11.50;96.30;;;;;;4909721;29;20087;-69
2021/10/21 03:13:03;;;;;;;4.18;3.08;;;11.50;96.60;;;;;;4907684;29;20055;-69
2021/10/21 03:15:29;;;;;;;3.78;3.03;;;11.50;96.50;;;;;;4911296;29;20095;-69
2021/10/21 03:17:55;;;;;;;3.17;2.80;;;11.50;96.20;;;;;;4911731;29;20052;-69
2021/10/21 03:20:21;;;;;;;4.47;2.85;;;11.50;96.20;;;;;;4913315;29;20080;-69
2021/10/21 03:22:47;;;;;;;5.32;2.97;;;11.50;96.50;;;;;;4914544;29;20032;-69
2021/10/21 03:25:12;;;;;;;4.88;3.15;;;11.40;96.90;;;;;;4904639;29;20044;-69
2021/10/21 03:27:39;;;;;;;3.38;2.90;;;11.40;96.90;;;;;;4913762;29;20379;-69
2021/10/21 03:30:06;;;;;;;4.55;3.08;;;11.30;97.20;;;;;;4907750;29;20032;-70
2021/10/21 03:32:32;;;;;;;3.42;3.13;;;11.40;97.30;;;;;;4913175;29;20052;-69
2021/10/21 03:34:58;;;;;;;5.65;3.28;;;11.40;97.10;;;;;;4911489;29;20032;-70
2021/10/21 03:37:24;;;;;;;4.03;2.70;;;11.40;97.20;;;;;;4913492;29;20115;-69
2021/10/21 03:39:50;;;;;;;4.22;2.75;;;11.40;97.90;;;;;;4912598;29;20047;-69
2021/10/21 03:42:23;;;;;;;3.65;3.03;;;11.30;98.10;;;;;;4928273;29;20035;-69
2021/10/21 03:44:49;;;;;;;5.00;3.42;;;11.30;98.10;;;;;;4913297;29;20111;-69
2021/10/21 03:47:16;;;;;;;10.80;2.90;;;11.30;98.80;;;;;;4911967;29;20036;-69
2021/10/21 03:49:42;;;;;;;4.63;3.03;;;11.30;98.30;;;;;;4912170;29;20441;-70
2021/10/21 03:52:07;;;;;;;5.38;3.50;;;11.30;98.50;;;;;;4912584;29;20095;-69
2021/10/21 03:54:33;;;;;;;3.35;2.70;;;11.30;98.30;;;;;;4913108;29;20028;-69
2021/10/21 03:56:59;;;;;;;5.18;3.50;;;11.30;98.80;;;;;;4913473;29;20040;-69
2021/10/21 03:59:24;;;;;;;6.53;3.88;;;11.30;98.80;;;;;;4911752;29;20655;-69
2021/10/21 04:01:53;;;;;;;5.78;3.25;;;11.30;98.70;;;;;;4911336;29;20028;-69
2021/10/21 04:04:19;;;;;;;6.72;3.60;;;11.30;98.60;;;;;;4912068;29;20028;-69
2021/10/21 04:06:45;;;;;;;3.92;3.25;;;11.40;98.50;;;;;;4912736;29;20024;-69
2021/10/21 04:09:11;;;;;;;5.43;3.70;;;11.30;98.90;;;;;;4913449;29;20416;-69
2021/10/21 04:11:36;;;;;;;5.10;3.67;;;11.40;99.00;;;;;;4913395;29;20028;-69
2021/10/21 04:14:02;;;;;;;5.25;3.70;;;11.40;98.60;;;;;;4913196;29;20151;-69
2021/10/21 04:16:28;;;;;;;5.03;3.08;;;11.40;98.80;;;;;;4912309;29;20039;-69
2021/10/21 04:18:54;;;;;;;7.30;3.83;;;11.40;98.90;;;;;;4912843;29;20029;-69
2021/10/21 04:21:20;;;;;;;7.30;3.60;;;11.40;99.20;;;;;;4913444;29;20533;-69
2021/10/21 04:23:46;;;;;;;7.60;4.13;;;11.50;99.30;;;;;;4911785;29;20032;-69
2021/10/21 04:26:12;;;;;;;8.10;4.22;;;11.50;99.90;;;;;;4912314;29;20110;-69
2021/10/21 04:28:38;;;;;;;7.50;4.38;;;11.60;99.90;;;;;;4927707;29;20032;-69
2021/10/21 04:31:03;;;;;;;8.25;4.32;;;11.70;99.90;;;;;;4910932;29;20572;-70
2021/10/21 04:33:29;;;;;;;6.57;3.92;;;11.70;99.90;;;;;;4912734;29;20032;-70
2021/10/21 04:35:55;;;;;;;7.45;4.30;;;11.80;99.90;;;;;;4911539;29;20030;-69
2021/10/21 04:38:21;;;;;;;6.32;3.78;;;11.90;99.90;;;;;;4912811;29;20697;-67
2021/10/21 04:40:46;;;;;;;6.32;3.75;;;11.90;99.90;;;;;;4913242;29;20043;-69
2021/10/21 04:43:12;;;;;;;14.05;5.30;;;11.90;99.90;;;;;;4912516;29;20024;-68
2021/10/21 04:45:38;;;;;;;9.82;4.80;;;12.00;99.90;;;;;;4911768;29;20020;-69
2021/10/21 04:48:04;;;;;;;8.30;4.88;;;12.00;99.90;;;;;;4910612;29;20111;-68
2021/10/21 04:50:30;;;;;;;6.80;4.00;;;12.10;99.90;;;;;;4912022;29;20039;-69
2021/10/21 04:52:55;;;;;;;5.82;3.90;;;12.10;99.90;;;;;;4912793;29;20255;-68
2021/10/21 04:55:23;;;;;;;8.73;4.70;;;12.10;99.90;;;;;;4911320;29;20091;-68
2021/10/21 04:57:49;;;;;;;6.77;4.43;;;12.10;99.90;;;;;;4910844;29;20024;-68
2021/10/21 05:00:16;;;;;;;7.03;4.47;;;12.10;99.90;;;;;;4913339;29;20088;-69
2021/10/21 05:02:42;;;;;;;8.02;4.53;;;12.20;99.90;;;;;;4929003;29;20032;-69
2021/10/21 05:05:09;;;;;;;7.95;5.30;;;12.10;99.90;;;;;;4915054;29;20063;-69
2021/10/21 05:07:37;;;;;;;7.10;4.28;;;12.20;99.90;;;;;;4914806;29;20039;-68
2021/10/21 05:10:04;;;;;;;8.25;4.50;;;12.20;99.90;;;;;;4922015;29;20393;-68
2021/10/21 05:12:30;;;;;;;7.50;4.47;;;12.20;99.90;;;;;;4912601;29;20047;-68
2021/10/21 05:14:56;;;;;;;9.18;5.30;;;12.30;99.80;;;;;;4922302;29;20296;-69
2021/10/21 05:17:23;;;;;;;8.85;5.15;;;12.30;99.90;;;;;;4911620;29;20028;-68
2021/10/21 05:19:49;;;;;;;8.50;5.22;;;12.40;99.90;;;;;;4928729;29;20028;-69
2021/10/21 05:22:15;;;;;;;5.20;3.83;;;12.40;99.90;;;;;;4909607;29;20452;-69
2021/10/21 05:24:40;;;;;;;5.07;2.70;;;12.40;99.90;;;;;;4911647;29;20040;-68
2021/10/21 05:27:08;;;;;;;2.25;1.60;;;12.40;99.30;;;;;;4926750;29;20039;-68
2021/10/21 05:29:34;;;;;;;4.07;1.90;;;12.30;99.90;;;;;;4918580;29;20027;-68
2021/10/21 05:32:05;;;;;;;3.38;1.50;;;12.30;99.90;;;;;;4914074;29;20513;-68
2021/10/21 05:34:31;;;;;;;1.92;1.70;;;12.30;99.90;;;;;;4932743;29;20393;-68
2021/10/21 05:36:57;;;;;;;4.93;2.47;;;12.30;99.90;;;;;;4912273;29;20020;-68
2021/10/21 05:39:22;;;;;;;5.68;3.20;;;12.30;99.90;;;;;;4915760;29;20040;-68
2021/10/21 05:41:48;;;;;;;5.90;3.38;;;12.30;99.90;;;;;;4915528;29;20069;-68
2021/10/21 05:44:13;;;;;;;5.80;4.05;;;12.40;99.90;;;;;;4915689;29;20094;-68
2021/10/21 05:46:39;;;;;;;4.70;3.42;;;12.40;99.90;;;;;;4916220;29;20032;-68
2021/10/21 05:49:05;;;;;;;3.13;1.90;;;12.40;99.90;;;;;;4914190;29;20533;-68
2021/10/21 05:51:30;;;;;;;3.25;2.45;;;12.40;99.20;;;;;;4915720;29;20047;-68
2021/10/21 05:53:56;;;;;;;3.40;2.05;;;12.40;99.10;;;;;;4912351;29;20126;-68
2021/10/21 05:56:21;;;;;;;2.20;1.63;;;12.40;98.50;;;;;;4914675;29;20115;-68
2021/10/21 05:58:47;;;;;;;2.33;1.58;;;12.40;97.20;;;;;;4915107;29;20028;-69
2021/10/21 06:01:13;;;;;;;2.17;1.60;;;12.40;97.10;;;;;;4915020;29;20040;-69
2021/10/21 06:03:38;;;;;;;1.73;1.20;;;12.30;97.10;;;;;;4940572;29;20673;-68
2021/10/21 06:06:05;;;;;;;2.25;1.10;;;12.30;96.20;;;;;;4913868;29;20036;-70
2021/10/21 06:08:32;;;;;;;2.40;0.77;;;12.30;95.30;;;;;;4912569;29;20032;-69
2021/10/21 06:11:00;;;;;;;1.05;0.73;;;12.30;94.60;;;;;;4916006;29;20027;-69
2021/10/21 06:13:26;;;;;;;1.13;0.60;;;12.20;93.40;;;;;;4899981;29;20131;-68
2021/10/21 06:15:52;;;;;;;2.55;0.80;;;12.10;93.60;;;;;;4933032;29;20127;-68
2021/10/21 06:18:17;;;;;;;0.90;0.85;;;12.10;92.90;;;;;;4910461;29;20024;-69
2021/10/21 06:20:43;;;;;;;1.83;0.65;;;12.10;93.10;;;;;;4915447;29;20036;-69
2021/10/21 06:23:10;;;;;;;0.77;0.70;;;12.00;92.40;;;;;;4913524;29;20032;-69
2021/10/21 06:25:36;;;;;;;1.75;0.60;;;12.00;92.40;;;;;;4907203;29;20028;-69
2021/10/21 06:28:01;;;;;;;2.08;0.73;;;12.00;92.50;;;;;;4921351;29;20560;-68
2021/10/21 06:30:27;;;;;;;0.70;0.52;;;12.00;92.80;;;;;;4907984;29;20054;-68
2021/10/21 06:32:54;;;;;;;3.40;0.70;;;11.90;92.30;;;;;;4916194;29;20116;-69
2021/10/21 06:35:20;;;;;;;2.05;0.88;;;11.90;91.40;;;;;;4928456;29;20055;-68
2021/10/21 06:37:46;;;;;;;1.25;0.50;;;11.90;91.40;;;;;;4922903;29;20032;-68
2021/10/21 06:40:14;;;;;;;1.02;0.70;;;11.80;90.40;;;;;;4913317;29;20226;-68
2021/10/21 06:42:40;;;;;;;2.65;0.68;;;11.80;91.50;;;;;;4917270;29;20026;-69
2021/10/21 06:45:06;;;;;;;3.42;1.00;;;11.80;90.70;;;;;;4917974;29;20127;-68
2021/10/21 06:47:34;;;;;;;0.70;0.60;;;11.80;90.20;;;;;;4908576;29;20024;-69
2021/10/21 06:50:00;;;;;;;2.25;0.90;;;11.80;90.00;;;;;;4920387;29;20032;-68
2021/10/21 06:52:26;;;;;;;1.25;0.70;;;11.70;90.80;;;;;;4921310;29;20495;-68
2021/10/21 06:54:52;;;;;;;1.23;0.77;;;11.70;89.70;;;;;;4919687;29;20742;-68
2021/10/21 06:57:19;;;;;;;0.80;0.57;;;11.70;89.90;;;;;;4921625;29;20024;-69
2021/10/21 06:59:45;;;;;;;4.90;1.15;;;11.70;90.00;;;;;;4919347;29;20028;-68
2021/10/21 07:02:11;;;;;;;3.20;0.73;;;11.80;88.70;;;;;;4919131;29;20115;-68
2021/10/21 07:04:37;;;;;;;2.15;0.82;;;11.70;87.90;;;;;;4915057;29;20092;-69
2021/10/21 07:07:03;;;;;;;4.30;0.80;;;11.80;89.00;;;;;;4913042;29;20408;-68
2021/10/21 07:09:29;;;;;;;1.08;0.55;;;11.70;87.70;;;;;;4913035;29;20115;-68
2021/10/21 07:11:54;;;;;;;6.68;0.80;;;11.80;87.20;;;;;;4914334;29;20028;-68
2021/10/21 07:14:20;;;;;;;2.22;0.73;;;11.80;87.00;;;;;;4912804;29;20059;-68
2021/10/21 07:16:46;;;;;;;1.33;1.02;;;11.80;88.50;;;;;;4914136;29;20021;-68
2021/10/21 07:19:11;;;;;;;3.88;0.88;;;11.80;85.10;;;;;;4910759;29;20043;-68
2021/10/21 07:21:37;;;;;;;2.30;0.85;;;11.80;88.40;;;;;;4912630;29;20095;-68
2021/10/21 07:24:03;;;;;;;3.38;0.90;;;11.90;86.20;;;;;;4912622;29;20118;-68
2021/10/21 07:26:29;;;;;;;1.55;0.55;;;12.00;85.70;;;;;;4911700;29;20056;-69
2021/10/21 07:28:54;;;;;;;3.45;0.60;;;12.00;86.50;;;;;;4906824;29;20043;-69
2021/10/21 07:31:21;;;;;;;1.40;0.63;;;12.10;85.70;;;;;;4913235;29;20044;-69
2021/10/21 07:33:47;;;;;;;1.65;0.52;;;12.10;85.50;;;;;;4912245;29;20037;-68
2021/10/21 07:36:13;;;;;;;4.38;1.10;;;12.20;84.50;;;;;;4908268;29;20028;-68
2021/10/21 07:38:39;;;;;;;5.78;0.88;;;12.20;82.60;;;;;;4906890;29;20040;-68
2021/10/21 07:41:05;;;;;;;2.25;0.68;;;12.20;82.70;;;;;;4911892;29;20032;-68
2021/10/21 07:43:35;;;;;;;2.47;1.00;;;12.30;81.00;;;;;;4913794;29;20479;-68
2021/10/21 07:46:00;;;;;;;2.05;0.73;;;12.30;80.80;;;;;;4911588;29;20084;-68
2021/10/21 07:48:26;;;;;;;3.67;0.80;;;12.30;81.50;;;;;;4916148;29;20402;-68
2021/10/21 07:50:52;;;;;;;8.63;0.98;;;12.40;79.10;;;;;;4906984;29;20036;-69
2021/10/21 07:53:18;;;;;;;2.90;0.90;;;12.40;78.30;;;;;;4913153;29;20047;-68
2021/10/21 07:55:43;;;;;;;1.55;0.73;;;12.30;78.90;;;;;;4913246;29;20031;-68
2021/10/21 07:58:09;;;;;;;3.92;0.65;;;12.30;78.90;;;;;;4920420;29;20099;-69
2021/10/21 08:00:35;;;;;;;3.33;1.10;;;12.30;78.70;;;;;;4908832;29;20020;-68
2021/10/21 08:03:01;;;;;;;7.03;0.80;;;12.30;80.00;;;;;;4910096;29;20375;-68
2021/10/21 08:05:28;;;;;;;3.63;0.80;;;12.30;79.70;;;;;;4911012;29;20024;-68
2021/10/21 08:07:55;;;;;;;4.30;0.77;;;12.40;78.30;;;;;;4911357;29;20032;-69
2021/10/21 08:10:21;;;;;;;2.38;0.50;;;12.40;76.90;;;;;;4913828;29;20059;-68
2021/10/21 08:12:48;;;;;;;4.47;1.15;;;12.40;77.30;;;;;;4910812;29;20071;-68
2021/10/21 08:15:15;;;;;;;2.47;0.60;;;12.40;76.80;;;;;;4913380;29;20552;-68
2021/10/21 08:17:43;;;;;;;4.22;1.13;;;12.40;77.10;;;;;;4924911;29;20485;-68
2021/10/21 08:20:11;;;;;;;4.18;1.00;;;12.40;76.10;;;;;;4911668;29;20027;-68
2021/10/21 08:22:39;;;;;;;1.65;0.60;;;12.40;76.60;;;;;;4909195;29;20024;-68
2021/10/21 08:25:05;;;;;;;;;;;12.40;76.10;;;;;;4914221;29;20028;-68
2021/10/21 08:27:31;;;;;;;3.63;0.90;;;12.40;76.60;;;;;;4912130;29;19915;-68
2021/10/21 08:29:56;;;;;;;4.07;0.85;;;12.50;76.00;;;;;;4916368;29;20095;-68
2021/10/21 08:32:22;;;;;;;1.63;0.90;;;12.50;76.70;;;;;;4910607;29;20107;-68
2021/10/21 08:34:49;;;;;;;4.03;0.90;;;12.60;75.80;;;;;;4912161;29;20082;-68
2021/10/21 08:37:15;;;;;;;3.85;1.17;;;12.70;75.60;;;;;;4910297;29;20036;-68
2021/10/21 08:39:42;;;;;;;5.25;1.10;;;12.70;76.70;;;;;;4913427;29;20039;-68
2021/10/21 08:42:10;;;;;;;2.85;0.98;;;12.70;75.50;;;;;;4911069;29;20111;-67
2021/10/21 08:44:39;;;;;;;3.53;1.13;;;12.70;73.40;;;;;;4911560;29;20099;-68
2021/10/21 08:47:07;;;;;;;8.65;1.00;;;12.70;74.30;;;;;;4923225;29;20084;-68
2021/10/21 08:49:37;;;;;;;1.10;0.50;;;12.80;74.40;;;;;;4913804;29;20024;-69
2021/10/21 08:52:03;;;;;;;5.78;1.08;;;12.80;74.50;;;;;;4908898;29;20048;-68
2021/10/21 08:54:29;;;;;;;1.05;0.75;;;12.90;73.80;;;;;;4912368;29;20501;-68
2021/10/21 08:56:56;;;;;;;5.03;1.25;;;13.00;73.50;;;;;;4914860;29;20024;-68
2021/10/21 08:59:22;;;;;;;3.97;0.70;;;13.00;71.50;;;;;;4913054;29;20032;-68
2021/10/21 09:01:51;;;;;;;5.28;0.80;;;13.00;69.80;;;;;;4914725;29;20039;-68
2021/10/21 09:04:36;;;;;;;0.45;0.40;;;13.00;71.00;;;;;;4914390;29;20027;-67
2021/10/21 09:09:44;;;;;;;4.82;1.20;;;13.10;68.90;;;;;;4905361;29;20034;-68
2021/10/21 09:12:12;;;;;;;4.10;1.02;;;13.20;69.60;;;;;;4908713;29;20083;-68
2021/10/21 09:14:43;;;;;;;1.95;0.60;;;13.20;69.60;;;;;;4913006;29;20047;-68
2021/10/21 09:17:11;;;;;;;5.10;1.20;;;13.30;67.60;;;;;;4910375;29;20064;-68
2021/10/21 09:19:39;;;;;;;6.55;0.98;;;13.30;68.40;;;;;;4916731;29;20119;-67
2021/10/21 09:22:07;;;;;;;4.03;0.70;;;13.30;70.30;;;;;;4905719;29;20057;-68
2021/10/21 09:24:40;;;;;;;2.13;0.77;;;13.30;68.00;;;;;;4912803;29;20048;-68
2021/10/21 09:27:10;;;;;;;2.88;0.82;;;13.40;67.90;;;;;;4911110;29;20433;-68
2021/10/21 09:29:43;;;;;;;2.08;0.80;;;13.40;66.50;;;;;;4910972;29;20032;-68
2021/10/21 09:32:21;;;;;;;2.45;0.70;;;13.50;69.10;;;;;;4911518;29;20513;-68
2021/10/21 09:34:55;;;;;;;;;;;13.50;65.90;;;;;;4913856;29;20031;-68
2021/10/21 09:37:31;;;;;;;2.33;0.93;;;13.50;66.90;;;;;;4907495;29;20380;-68
2021/10/21 09:39:59;;;;;;;4.15;0.75;;;13.50;66.30;;;;;;4912850;29;20111;-68
2021/10/21 09:42:30;;;;;;;1.90;0.80;;;13.60;65.80;;;;;;4913840;29;20489;-68
2021/10/21 09:45:16;;;;;;;0.70;0.68;;;13.60;65.80;;;;;;4913558;29;20035;-68
2021/10/21 09:47:44;;;;;;;3.13;0.88;;;13.60;66.00;;;;;;4916655;29;20028;-68
2021/10/21 09:50:28;;;;;;;3.13;0.80;;;13.70;64.70;;;;;;4931822;28;20032;-68
2021/10/21 09:53:31;;;;;;;3.33;0.65;;;13.70;65.50;;;;;;4912241;29;20032;-68
2021/10/21 09:55:59;;;;;;;2.47;0.70;;;13.70;66.70;;;;;;4935523;29;20544;-68
2021/10/21 09:58:25;;;;;;;;;;;13.80;66.60;;;;;;4910954;29;20040;-67
2021/10/21 10:00:53;;;;;;;1.30;0.60;;;13.90;66.00;;;;;;4928817;29;19911;-68
2021/10/21 10:03:22;;;;;;;2.40;0.60;;;14.00;64.90;;;;;;4907396;29;20402;-68
2021/10/21 10:05:50;;;;;;;1.95;0.80;;;14.20;66.60;;;;;;4908895;29;20060;-68
2021/10/21 10:08:18;;;;;;;3.20;0.82;;;14.10;64.20;;;;;;4915645;29;20506;-68
2021/10/21 10:10:46;;;;;;;3.88;0.90;;;13.90;64.50;;;;;;4931873;28;20032;-67
2021/10/21 10:13:13;;;;;;;1.55;0.50;;;13.80;65.60;;;;;;4914707;29;20047;-68
2021/10/21 10:15:43;;;;;;;2.67;0.77;;;13.80;65.10;;;;;;4914565;29;20450;-68
2021/10/21 10:18:26;;;;;;;2.13;0.55;;;13.70;65.40;;;;;;4919712;29;20031;-68
2021/10/21 10:21:18;;;;;;;1.77;0.60;;;13.70;63.80;;;;;;4909210;29;20496;-68
2021/10/21 10:23:51;;;;;;;1.65;0.45;;;13.70;66.90;;;;;;4907985;29;20108;-69
2021/10/21 10:26:40;;;;;;;1.45;1.00;;;13.80;65.60;;;;;;4926219;29;20028;-68
2021/10/21 10:29:06;;;;;;;5.78;0.65;;;13.80;63.40;;;;;;4903636;29;20039;-68
2021/10/21 10:31:43;;;;;;;5.78;0.82;;;13.80;62.30;;;;;;4929807;28;20044;-68
2021/10/21 10:34:32;;;;;;;5.10;1.08;;;13.90;64.00;;;;;;4916542;29;20092;-68
2021/10/21 10:37:19;;;;;;;3.08;0.85;;;13.90;64.50;;;;;;4912487;29;20036;-68
2021/10/21 10:39:50;;;;;;;3.28;0.80;;;13.80;62.20;;;;;;4911172;29;20103;-69
2021/10/21 10:42:38;;;;;;;2.22;0.60;;;13.80;63.60;;;;;;4915975;29;20146;-68
2021/10/21 10:45:07;;;;;;;2.10;1.27;;;13.80;62.90;;;;;;4905041;29;20028;-68
2021/10/21 10:47:54;;;;;;;1.08;0.40;;;13.70;61.30;;;;;;4913800;29;20047;-68
2021/10/21 10:50:22;;;;;;;2.58;0.80;;;13.60;62.00;;;;;;4909843;29;20040;-68
2021/10/21 10:53:06;;;;;;;1.30;0.77;;;13.50;63.40;;;;;;4912850;29;20059;-68
2021/10/21 10:55:42;;;;;;;3.97;0.52;;;13.60;63.80;;;;;;4912061;29;20486;-68
2021/10/21 10:58:17;;;;;;;0.80;0.50;;;13.60;62.90;;;;;;4927980;29;20028;-67
2021/10/21 11:00:56;;;;;;;2.22;1.05;;;13.60;63.70;;;;;;4901457;29;20033;-68
2021/10/21 11:03:38;;;;;;;4.40;0.75;;;13.60;61.90;;;;;;4903650;29;20059;-68
2021/10/21 11:06:15;;;;;;;0.95;0.50;;;13.80;60.30;;;;;;4911575;29;20718;-68
2021/10/21 11:09:16;;;;;;;0.98;0.45;;;14.00;59.80;;;;;;4915268;29;20027;-68
2021/10/21 11:11:41;;;;;;;1.67;0.45;;;14.10;62.60;;;;;;4913380;29;20028;-68
2021/10/21 11:14:15;;;;;;;3.40;0.73;;;14.20;61.20;;;;;;4914063;29;20048;-68
2021/10/21 11:16:55;;;;;;;2.22;0.45;;;14.40;61.70;;;;;;4915431;29;20123;-68
2021/10/21 11:19:42;;;;;;;1.77;0.50;;;14.50;62.30;;;;;;4912542;29;20101;-68
2021/10/21 11:22:34;;;;;;;1.40;0.40;;;14.40;62.40;;;;;;4914251;29;20028;-68
2021/10/21 11:25:06;;;;;;;1.05;0.30;;;14.20;61.40;;;;;;4908384;29;20032;-69
2021/10/21 11:27:41;;;;;;;2.42;0.60;;;14.10;62.80;;;;;;4914568;29;20032;-68
2021/10/21 11:30:13;;;;;;;2.20;0.40;;;14.10;61.50;;;;;;4912516;29;20036;-68
2021/10/21 11:32:40;;;;;;;0.30;0.30;;;13.90;61.10;;;;;;4915095;29;20413;-68
2021/10/21 11:35:15;;;;;;;1.90;0.73;;;13.80;63.30;;;;;;4908690;29;21523;-68
2021/10/21 11:37:52;;;;;;;2.10;0.50;;;13.80;62.60;;;;;;4911867;29;20486;-68
2021/10/21 11:40:33;;;;;;;2.85;0.68;;;13.70;63.40;;;;;;4910449;29;20024;-68
2021/10/21 11:43:04;;;;;;;3.33;0.50;;;13.70;62.30;;;;;;4913256;29;20024;-68
2021/10/21 11:45:36;;;;;;;0.40;0.40;;;13.70;63.10;;;;;;4927617;29;20050;-68
2021/10/21 11:48:08;;;;;;;0.65;0.63;;;13.70;62.30;;;;;;4913076;29;20032;-68
2021/10/21 11:50:37;;;;;;;2.50;0.40;;;13.50;63.20;;;;;;4910501;29;20064;-68
2021/10/21 11:53:03;;;;;;;2.45;0.57;;;13.60;62.70;;;;;;4913620;29;20036;-69
2021/10/21 11:55:30;;;;;;;1.25;0.40;;;13.70;62.80;;;;;;4911654;29;20032;-68
2021/10/21 11:57:57;;;;;;;0.70;0.40;;;13.70;62.80;;;;;;4913539;29;20103;-68
2021/10/21 12:00:28;;;;;;;0.40;0.40;;;13.80;63.80;;;;;;4911550;29;20059;-67
2021/10/21 12:02:59;;;;;;;1.05;0.40;;;14.00;63.50;;;;;;4913566;29;20021;-68
2021/10/21 12:05:27;;;;;;;1.85;0.57;;;14.10;63.10;;;;;;4911338;29;20031;-70
2021/10/21 12:07:53;;;;;;;2.72;0.75;;;14.20;61.70;;;;;;4925192;29;20064;-68
2021/10/21 12:10:34;;;;;;;0.95;0.40;;;14.10;66.70;;;;;;4908218;29;20062;-69
2021/10/21 12:13:03;;;;;;;0.45;0.40;;;13.40;69.30;;;;;;4912648;29;20517;-68
2021/10/21 12:15:32;;;;;;;0.73;0.52;;;13.20;72.80;;;;;;4913338;29;20040;-68
2021/10/21 12:18:03;;;;;;;1.48;0.52;;;13.10;74.10;;;;;;4912405;29;20032;-68
2021/10/21 12:20:51;;;;;;;1.55;0.60;;;12.90;75.20;;;;;;4911055;29;20104;-68
2021/10/21 12:23:32;;;;;;;1.17;0.40;;;12.70;75.00;;;;;;4911078;29;20040;-68
2021/10/21 12:25:59;;;;;;;0.65;0.30;;;12.70;75.30;;;;;;4909773;29;20111;-69
2021/10/21 12:28:47;;;;;;;2.45;0.50;;;12.80;76.10;;;;;;4913461;29;20028;-68
2021/10/21 12:31:18;;;;;;;0.95;0.57;;;12.80;75.60;;;;;;4906148;29;20060;-68
2021/10/21 12:34:14;;;;;;;1.00;0.60;;;12.90;76.00;;;;;;4910289;29;20039;-67
2021/10/21 12:36:51;;;;;;;0.60;0.60;;;13.00;76.20;;;;;;4914818;29;22044;-68
2021/10/21 12:39:30;;;;;;;0.20;0.20;;;13.00;75.00;;;;;;4914165;29;20505;-68
2021/10/21 12:42:08;;;;;;;1.00;0.47;;;12.90;75.90;;;;;;4912283;29;20055;-68
2021/10/21 12:44:37;;;;;;;0.50;0.47;;;12.70;73.60;;;;;;4902173;29;20025;-68
2021/10/21 12:47:16;;;;;;;0.22;0.22;;;12.70;73.90;;;;;;4912978;29;20044;-68
2021/10/21 12:50:02;;;;;;;1.50;0.60;;;12.70;74.50;;;;;;4906242;29;20042;-68
2021/10/21 12:52:32;;;;;;;2.38;0.47;;;12.70;75.00;;;;;;4905536;29;22175;-67
2021/10/21 12:55:06;;;;;;;0.85;0.43;;;12.70;74.70;;;;;;4905333;29;20024;-67
2021/10/21 12:57:43;;;;;;;1.52;0.60;;;12.70;74.80;;;;;;4905421;29;20036;-68